sensor_id;sensor_type;location;lat;lon;timestamp;P1;durP1;ratioP1;P2;durP2;ratioP2
6667;SDS011;3370;47.712;9.082;2022-12-26T00:00:32;50.97;;;17.50;;
6667;SDS011;3370;47.712;9.082;2022-12-26T00:02:58;71.83;;;15.97;;
6667;SDS011;3370;47.712;9.082;2022-12-26T00:05:24;44.83;;;15.20;;
6667;SDS011;3370;47.712;9.082;2022-12-26T00:07:50;72.60;;;15.40;;
6667;SDS011;3370;47.712;9.082;2022-12-26T00:10:16;41.63;;;14.17;;
6667;SDS011;3370;47.712;9.082;2022-12-26T00:12:42;101.27;;;14.53;;
6667;SDS011;3370;47.712;9.082;2022-12-26T00:15:10;82.90;;;13.80;;
6667;SDS011;3370;47.712;9.082;2022-12-26T00:17:36;130.13;;;15.63;;
6667;SDS011;3370;47.712;9.082;2022-12-26T00:20:05;91.30;;;13.40;;
6667;SDS011;3370;47.712;9.082;2022-12-26T00:22:35;68.40;;;14.57;;
6667;SDS011;3370;47.712;9.082;2022-12-26T00:25:01;80.37;;;15.60;;
6667;SDS011;3370;47.712;9.082;2022-12-26T00:27:26;49.73;;;14.60;;
6667;SDS011;3370;47.712;9.082;2022-12-26T00:29:52;18.57;;;13.53;;
6667;SDS011;3370;47.712;9.082;2022-12-26T00:32:18;142.00;;;18.10;;
6667;SDS011;3370;47.712;9.082;2022-12-26T00:34:44;69.17;;;16.33;;
6667;SDS011;3370;47.712;9.082;2022-12-26T00:37:10;30.27;;;14.80;;
6667;SDS011;3370;47.712;9.082;2022-12-26T00:39:36;29.50;;;15.70;;
6667;SDS011;3370;47.712;9.082;2022-12-26T00:42:02;34.70;;;14.00;;
6667;SDS011;3370;47.712;9.082;2022-12-26T00:44:27;36.53;;;18.37;;
6667;SDS011;3370;47.712;9.082;2022-12-26T00:46:53;87.37;;;18.83;;
6667;SDS011;3370;47.712;9.082;2022-12-26T00:49:19;32.70;;;16.57;;
6667;SDS011;3370;47.712;9.082;2022-12-26T00:51:45;42.87;;;15.80;;
6667;SDS011;3370;47.712;9.082;2022-12-26T00:54:11;61.97;;;15.40;;
6667;SDS011;3370;47.712;9.082;2022-12-26T00:56:36;20.63;;;15.10;;
6667;SDS011;3370;47.712;9.082;2022-12-26T00:59:02;28.70;;;16.77;;
6667;SDS011;3370;47.712;9.082;2022-12-26T01:01:28;20.30;;;14.83;;
6667;SDS011;3370;47.712;9.082;2022-12-26T01:03:55;30.53;;;17.13;;
6667;SDS011;3370;47.712;9.082;2022-12-26T01:06:22;23.70;;;14.80;;
6667;SDS011;3370;47.712;9.082;2022-12-26T01:08:48;22.93;;;15.77;;
6667;SDS011;3370;47.712;9.082;2022-12-26T01:11:14;36.77;;;15.30;;
6667;SDS011;3370;47.712;9.082;2022-12-26T01:14:01;20.70;;;14.87;;
6667;SDS011;3370;47.712;9.082;2022-12-26T01:16:28;28.73;;;15.83;;
6667;SDS011;3370;47.712;9.082;2022-12-26T01:18:54;26.90;;;16.47;;
6667;SDS011;3370;47.712;9.082;2022-12-26T01:21:21;23.10;;;14.77;;
6667;SDS011;3370;47.712;9.082;2022-12-26T01:23:46;30.20;;;14.57;;
6667;SDS011;3370;47.712;9.082;2022-12-26T01:26:12;21.93;;;14.50;;
6667;SDS011;3370;47.712;9.082;2022-12-26T01:28:38;25.97;;;15.37;;
6667;SDS011;3370;47.712;9.082;2022-12-26T01:31:04;24.27;;;16.17;;
6667;SDS011;3370;47.712;9.082;2022-12-26T01:33:30;32.83;;;15.90;;
6667;SDS011;3370;47.712;9.082;2022-12-26T01:35:57;29.33;;;16.10;;
6667;SDS011;3370;47.712;9.082;2022-12-26T01:38:23;26.10;;;17.60;;
6667;SDS011;3370;47.712;9.082;2022-12-26T01:40:49;28.27;;;15.33;;
6667;SDS011;3370;47.712;9.082;2022-12-26T01:46:16;23.47;;;14.33;;
6667;SDS011;3370;47.712;9.082;2022-12-26T01:48:48;23.17;;;15.97;;
6667;SDS011;3370;47.712;9.082;2022-12-26T01:51:14;25.80;;;16.73;;
6667;SDS011;3370;47.712;9.082;2022-12-26T01:53:44;21.00;;;14.30;;
6667;SDS011;3370;47.712;9.082;2022-12-26T01:56:15;28.37;;;16.20;;
6667;SDS011;3370;47.712;9.082;2022-12-26T01:58:51;38.80;;;16.87;;
6667;SDS011;3370;47.712;9.082;2022-12-26T02:01:45;25.17;;;15.10;;
6667;SDS011;3370;47.712;9.082;2022-12-26T02:04:14;24.60;;;16.70;;
6667;SDS011;3370;47.712;9.082;2022-12-26T02:07:05;24.13;;;15.73;;
6667;SDS011;3370;47.712;9.082;2022-12-26T02:09:31;23.50;;;17.20;;
6667;SDS011;3370;47.712;9.082;2022-12-26T02:12:07;28.70;;;15.20;;
6667;SDS011;3370;47.712;9.082;2022-12-26T02:14:42;34.87;;;15.57;;
6667;SDS011;3370;47.712;9.082;2022-12-26T02:17:08;37.33;;;15.80;;
6667;SDS011;3370;47.712;9.082;2022-12-26T02:25:13;24.20;;;14.23;;
6667;SDS011;3370;47.712;9.082;2022-12-26T02:28:28;40.50;;;13.37;;
6667;SDS011;3370;47.712;9.082;2022-12-26T02:34:34;25.73;;;13.37;;
6667;SDS011;3370;47.712;9.082;2022-12-26T02:43:37;31.40;;;12.47;;
6667;SDS011;3370;47.712;9.082;2022-12-26T02:46:29;49.07;;;12.30;;
6667;SDS011;3370;47.712;9.082;2022-12-26T02:49:27;35.50;;;12.70;;
6667;SDS011;3370;47.712;9.082;2022-12-26T02:52:28;26.63;;;11.70;;
6667;SDS011;3370;47.712;9.082;2022-12-26T02:55:51;24.10;;;11.13;;
6667;SDS011;3370;47.712;9.082;2022-12-26T02:58:47;33.00;;;11.50;;
6667;SDS011;3370;47.712;9.082;2022-12-26T03:01:51;16.23;;;13.17;;
6667;SDS011;3370;47.712;9.082;2022-12-26T03:04:40;21.93;;;11.73;;
6667;SDS011;3370;47.712;9.082;2022-12-26T03:07:28;63.17;;;13.23;;
6667;SDS011;3370;47.712;9.082;2022-12-26T03:10:20;52.77;;;13.30;;
6667;SDS011;3370;47.712;9.082;2022-12-26T03:13:37;15.50;;;12.03;;
6667;SDS011;3370;47.712;9.082;2022-12-26T03:16:07;17.23;;;12.53;;
6667;SDS011;3370;47.712;9.082;2022-12-26T03:18:56;77.03;;;14.53;;
6667;SDS011;3370;47.712;9.082;2022-12-26T03:21:27;36.67;;;13.27;;
6667;SDS011;3370;47.712;9.082;2022-12-26T03:24:00;24.70;;;13.83;;
6667;SDS011;3370;47.712;9.082;2022-12-26T03:26:33;70.70;;;14.07;;
6667;SDS011;3370;47.712;9.082;2022-12-26T03:29:11;26.23;;;12.67;;
6667;SDS011;3370;47.712;9.082;2022-12-26T03:32:01;18.93;;;12.30;;
6667;SDS011;3370;47.712;9.082;2022-12-26T03:34:30;23.60;;;12.60;;
6667;SDS011;3370;47.712;9.082;2022-12-26T03:49:27;25.90;;;12.37;;
6667;SDS011;3370;47.712;9.082;2022-12-26T03:56:11;66.90;;;10.87;;
6667;SDS011;3370;47.712;9.082;2022-12-26T03:59:18;58.00;;;10.87;;
6667;SDS011;3370;47.712;9.082;2022-12-26T04:02:11;18.43;;;9.47;;
6667;SDS011;3370;47.712;9.082;2022-12-26T04:04:58;23.00;;;10.80;;
6667;SDS011;3370;47.712;9.082;2022-12-26T04:07:54;16.63;;;10.43;;
6667;SDS011;3370;47.712;9.082;2022-12-26T04:10:47;27.70;;;11.03;;
6667;SDS011;3370;47.712;9.082;2022-12-26T04:13:41;23.13;;;10.10;;
6667;SDS011;3370;47.712;9.082;2022-12-26T04:16:51;20.43;;;9.57;;
6667;SDS011;3370;47.712;9.082;2022-12-26T04:25:26;21.00;;;10.80;;
6667;SDS011;3370;47.712;9.082;2022-12-26T04:28:20;15.67;;;9.93;;
6667;SDS011;3370;47.712;9.082;2022-12-26T04:31:10;49.90;;;11.10;;
6667;SDS011;3370;47.712;9.082;2022-12-26T04:34:12;73.10;;;12.10;;
6667;SDS011;3370;47.712;9.082;2022-12-26T04:37:06;18.90;;;9.27;;
6667;SDS011;3370;47.712;9.082;2022-12-26T04:40:02;11.70;;;9.03;;
6667;SDS011;3370;47.712;9.082;2022-12-26T04:42:50;11.57;;;9.07;;
6667;SDS011;3370;47.712;9.082;2022-12-26T04:45:36;55.03;;;9.37;;
6667;SDS011;3370;47.712;9.082;2022-12-26T04:48:02;33.50;;;9.90;;
6667;SDS011;3370;47.712;9.082;2022-12-26T04:50:50;49.57;;;8.73;;
6667;SDS011;3370;47.712;9.082;2022-12-26T04:53:17;18.53;;;7.23;;
6667;SDS011;3370;47.712;9.082;2022-12-26T04:55:44;14.20;;;8.13;;
6667;SDS011;3370;47.712;9.082;2022-12-26T04:58:11;21.60;;;8.17;;
6667;SDS011;3370;47.712;9.082;2022-12-26T05:00:36;22.77;;;6.90;;
6667;SDS011;3370;47.712;9.082;2022-12-26T05:03:02;11.03;;;8.40;;
6667;SDS011;3370;47.712;9.082;2022-12-26T05:05:47;10.30;;;8.10;;
6667;SDS011;3370;47.712;9.082;2022-12-26T05:08:41;9.00;;;7.60;;
6667;SDS011;3370;47.712;9.082;2022-12-26T05:11:31;7.97;;;7.17;;
6667;SDS011;3370;47.712;9.082;2022-12-26T05:13:58;9.40;;;8.40;;
6667;SDS011;3370;47.712;9.082;2022-12-26T05:16:25;13.50;;;7.60;;
6667;SDS011;3370;47.712;9.082;2022-12-26T05:19:12;13.47;;;7.47;;
6667;SDS011;3370;47.712;9.082;2022-12-26T05:21:58;8.90;;;7.43;;
6667;SDS011;3370;47.712;9.082;2022-12-26T05:24:45;53.17;;;9.10;;
6667;SDS011;3370;47.712;9.082;2022-12-26T05:27:33;8.43;;;7.53;;
6667;SDS011;3370;47.712;9.082;2022-12-26T05:30:21;9.63;;;7.60;;
6667;SDS011;3370;47.712;9.082;2022-12-26T05:32:47;9.10;;;7.40;;
6667;SDS011;3370;47.712;9.082;2022-12-26T05:35:32;11.07;;;8.03;;
6667;SDS011;3370;47.712;9.082;2022-12-26T05:37:59;11.73;;;7.83;;
6667;SDS011;3370;47.712;9.082;2022-12-26T05:40:26;9.13;;;7.27;;
6667;SDS011;3370;47.712;9.082;2022-12-26T05:42:52;8.40;;;7.50;;
6667;SDS011;3370;47.712;9.082;2022-12-26T05:45:18;7.47;;;6.30;;
6667;SDS011;3370;47.712;9.082;2022-12-26T05:47:44;6.97;;;6.30;;
6667;SDS011;3370;47.712;9.082;2022-12-26T05:50:09;8.33;;;6.17;;
6667;SDS011;3370;47.712;9.082;2022-12-26T05:52:35;7.30;;;6.23;;
6667;SDS011;3370;47.712;9.082;2022-12-26T05:55:02;7.50;;;6.70;;
6667;SDS011;3370;47.712;9.082;2022-12-26T05:57:28;8.30;;;7.07;;
6667;SDS011;3370;47.712;9.082;2022-12-26T05:59:53;7.00;;;5.80;;
6667;SDS011;3370;47.712;9.082;2022-12-26T06:02:19;8.17;;;6.73;;
6667;SDS011;3370;47.712;9.082;2022-12-26T06:04:45;6.70;;;5.87;;
6667;SDS011;3370;47.712;9.082;2022-12-26T06:07:11;6.70;;;6.00;;
6667;SDS011;3370;47.712;9.082;2022-12-26T06:09:37;6.67;;;5.73;;
6667;SDS011;3370;47.712;9.082;2022-12-26T06:12:03;6.20;;;5.63;;
6667;SDS011;3370;47.712;9.082;2022-12-26T06:14:29;7.67;;;6.07;;
6667;SDS011;3370;47.712;9.082;2022-12-26T06:16:54;9.43;;;6.30;;
6667;SDS011;3370;47.712;9.082;2022-12-26T06:19:20;7.20;;;6.50;;
6667;SDS011;3370;47.712;9.082;2022-12-26T06:21:46;7.60;;;6.20;;
6667;SDS011;3370;47.712;9.082;2022-12-26T06:24:12;7.77;;;6.00;;
6667;SDS011;3370;47.712;9.082;2022-12-26T06:26:38;7.17;;;6.07;;
6667;SDS011;3370;47.712;9.082;2022-12-26T06:29:05;6.73;;;6.07;;
6667;SDS011;3370;47.712;9.082;2022-12-26T06:31:31;7.80;;;6.73;;
6667;SDS011;3370;47.712;9.082;2022-12-26T06:33:57;7.53;;;6.77;;
6667;SDS011;3370;47.712;9.082;2022-12-26T06:36:23;7.23;;;6.53;;
6667;SDS011;3370;47.712;9.082;2022-12-26T06:38:51;6.53;;;5.93;;
6667;SDS011;3370;47.712;9.082;2022-12-26T06:41:18;7.10;;;6.10;;
6667;SDS011;3370;47.712;9.082;2022-12-26T06:43:46;6.70;;;6.03;;
6667;SDS011;3370;47.712;9.082;2022-12-26T06:46:14;8.57;;;6.30;;
6667;SDS011;3370;47.712;9.082;2022-12-26T06:48:45;7.40;;;5.87;;
6667;SDS011;3370;47.712;9.082;2022-12-26T06:51:12;9.17;;;5.90;;
6667;SDS011;3370;47.712;9.082;2022-12-26T06:53:42;10.20;;;6.70;;
6667;SDS011;3370;47.712;9.082;2022-12-26T06:56:17;6.90;;;6.20;;
6667;SDS011;3370;47.712;9.082;2022-12-26T06:58:46;6.87;;;6.17;;
6667;SDS011;3370;47.712;9.082;2022-12-26T07:01:13;7.83;;;6.30;;
6667;SDS011;3370;47.712;9.082;2022-12-26T07:03:43;7.77;;;6.60;;
6667;SDS011;3370;47.712;9.082;2022-12-26T07:06:26;6.83;;;6.07;;
6667;SDS011;3370;47.712;9.082;2022-12-26T07:08:57;7.30;;;6.57;;
6667;SDS011;3370;47.712;9.082;2022-12-26T07:11:27;6.50;;;5.90;;
6667;SDS011;3370;47.712;9.082;2022-12-26T07:13:56;6.90;;;6.17;;
6667;SDS011;3370;47.712;9.082;2022-12-26T07:16:23;8.43;;;5.73;;
6667;SDS011;3370;47.712;9.082;2022-12-26T07:18:50;8.17;;;4.77;;
6667;SDS011;3370;47.712;9.082;2022-12-26T07:21:18;6.80;;;5.87;;
6667;SDS011;3370;47.712;9.082;2022-12-26T07:23:43;5.43;;;4.93;;
6667;SDS011;3370;47.712;9.082;2022-12-26T07:26:09;6.33;;;5.77;;
6667;SDS011;3370;47.712;9.082;2022-12-26T07:28:35;5.70;;;5.27;;
6667;SDS011;3370;47.712;9.082;2022-12-26T07:31:01;6.53;;;4.93;;
6667;SDS011;3370;47.712;9.082;2022-12-26T07:33:27;6.03;;;4.30;;
6667;SDS011;3370;47.712;9.082;2022-12-26T07:35:57;10.83;;;9.87;;
6667;SDS011;3370;47.712;9.082;2022-12-26T07:38:24;6.67;;;6.17;;
6667;SDS011;3370;47.712;9.082;2022-12-26T07:40:53;6.60;;;5.70;;
6667;SDS011;3370;47.712;9.082;2022-12-26T07:43:20;6.10;;;5.60;;
6667;SDS011;3370;47.712;9.082;2022-12-26T07:45:46;5.70;;;5.20;;
6667;SDS011;3370;47.712;9.082;2022-12-26T07:48:12;5.63;;;4.90;;
6667;SDS011;3370;47.712;9.082;2022-12-26T07:50:38;5.63;;;5.13;;
6667;SDS011;3370;47.712;9.082;2022-12-26T07:53:04;5.40;;;4.90;;
6667;SDS011;3370;47.712;9.082;2022-12-26T07:55:30;5.20;;;4.70;;
6667;SDS011;3370;47.712;9.082;2022-12-26T07:57:55;5.10;;;4.70;;
6667;SDS011;3370;47.712;9.082;2022-12-26T08:00:21;6.40;;;5.83;;
6667;SDS011;3370;47.712;9.082;2022-12-26T08:02:48;5.83;;;5.33;;
6667;SDS011;3370;47.712;9.082;2022-12-26T08:05:17;6.93;;;5.57;;
6667;SDS011;3370;47.712;9.082;2022-12-26T08:07:45;5.70;;;5.20;;
6667;SDS011;3370;47.712;9.082;2022-12-26T08:10:12;7.00;;;6.20;;
6667;SDS011;3370;47.712;9.082;2022-12-26T08:12:40;6.93;;;6.23;;
6667;SDS011;3370;47.712;9.082;2022-12-26T08:15:06;5.97;;;5.03;;
6667;SDS011;3370;47.712;9.082;2022-12-26T08:17:34;6.57;;;5.80;;
6667;SDS011;3370;47.712;9.082;2022-12-26T08:19:59;6.80;;;6.10;;
6667;SDS011;3370;47.712;9.082;2022-12-26T08:22:25;7.50;;;6.90;;
6667;SDS011;3370;47.712;9.082;2022-12-26T08:24:51;6.83;;;6.23;;
6667;SDS011;3370;47.712;9.082;2022-12-26T08:27:17;6.73;;;6.13;;
6667;SDS011;3370;47.712;9.082;2022-12-26T08:29:43;6.80;;;6.10;;
6667;SDS011;3370;47.712;9.082;2022-12-26T08:32:09;10.40;;;5.93;;
6667;SDS011;3370;47.712;9.082;2022-12-26T08:34:34;7.43;;;6.20;;
6667;SDS011;3370;47.712;9.082;2022-12-26T08:37:00;8.87;;;6.77;;
6667;SDS011;3370;47.712;9.082;2022-12-26T08:39:27;6.90;;;6.03;;
6667;SDS011;3370;47.712;9.082;2022-12-26T08:41:52;6.97;;;6.27;;
6667;SDS011;3370;47.712;9.082;2022-12-26T08:44:18;8.10;;;6.40;;
6667;SDS011;3370;47.712;9.082;2022-12-26T08:46:44;6.30;;;5.80;;
6667;SDS011;3370;47.712;9.082;2022-12-26T08:49:10;6.10;;;5.60;;
6667;SDS011;3370;47.712;9.082;2022-12-26T08:51:36;6.73;;;6.13;;
6667;SDS011;3370;47.712;9.082;2022-12-26T08:54:03;5.90;;;5.40;;
6667;SDS011;3370;47.712;9.082;2022-12-26T08:56:29;5.80;;;5.27;;
6667;SDS011;3370;47.712;9.082;2022-12-26T08:58:55;8.83;;;6.57;;
6667;SDS011;3370;47.712;9.082;2022-12-26T09:01:23;9.00;;;6.03;;
6667;SDS011;3370;47.712;9.082;2022-12-26T09:03:52;6.87;;;6.17;;
6667;SDS011;3370;47.712;9.082;2022-12-26T09:06:20;6.57;;;5.97;;
6667;SDS011;3370;47.712;9.082;2022-12-26T09:08:46;6.20;;;5.60;;
6667;SDS011;3370;47.712;9.082;2022-12-26T09:11:13;7.47;;;6.77;;
6667;SDS011;3370;47.712;9.082;2022-12-26T09:13:45;7.20;;;6.50;;
6667;SDS011;3370;47.712;9.082;2022-12-26T09:16:15;7.23;;;6.50;;
6667;SDS011;3370;47.712;9.082;2022-12-26T09:18:44;6.10;;;5.60;;
6667;SDS011;3370;47.712;9.082;2022-12-26T09:21:11;6.10;;;5.60;;
6667;SDS011;3370;47.712;9.082;2022-12-26T09:23:39;6.90;;;6.23;;
6667;SDS011;3370;47.712;9.082;2022-12-26T09:26:13;5.93;;;5.40;;
6667;SDS011;3370;47.712;9.082;2022-12-26T09:28:44;5.47;;;5.00;;
6667;SDS011;3370;47.712;9.082;2022-12-26T09:31:15;6.40;;;5.13;;
6667;SDS011;3370;47.712;9.082;2022-12-26T09:33:47;6.10;;;5.40;;
6667;SDS011;3370;47.712;9.082;2022-12-26T09:36:15;8.27;;;6.30;;
6667;SDS011;3370;47.712;9.082;2022-12-26T09:38:43;6.90;;;6.30;;
6667;SDS011;3370;47.712;9.082;2022-12-26T09:44:29;7.63;;;6.93;;
6667;SDS011;3370;47.712;9.082;2022-12-26T09:47:15;6.90;;;6.30;;
6667;SDS011;3370;47.712;9.082;2022-12-26T09:52:38;6.63;;;5.97;;
6667;SDS011;3370;47.712;9.082;2022-12-26T09:55:49;6.83;;;6.10;;
6667;SDS011;3370;47.712;9.082;2022-12-26T09:58:29;7.87;;;6.57;;
6667;SDS011;3370;47.712;9.082;2022-12-26T10:01:02;6.67;;;6.07;;
6667;SDS011;3370;47.712;9.082;2022-12-26T10:04:22;7.23;;;6.23;;
6667;SDS011;3370;47.712;9.082;2022-12-26T10:07:00;9.50;;;5.70;;
6667;SDS011;3370;47.712;9.082;2022-12-26T10:12:57;9.60;;;6.50;;
6667;SDS011;3370;47.712;9.082;2022-12-26T10:24:00;14.33;;;7.63;;
6667;SDS011;3370;47.712;9.082;2022-12-26T10:26:38;14.37;;;9.33;;
6667;SDS011;3370;47.712;9.082;2022-12-26T10:29:20;12.93;;;10.07;;
6667;SDS011;3370;47.712;9.082;2022-12-26T10:32:04;9.70;;;8.53;;
6667;SDS011;3370;47.712;9.082;2022-12-26T10:34:44;9.67;;;7.77;;
6667;SDS011;3370;47.712;9.082;2022-12-26T10:40:20;8.53;;;6.97;;
6667;SDS011;3370;47.712;9.082;2022-12-26T10:43:14;10.83;;;8.07;;
6667;SDS011;3370;47.712;9.082;2022-12-26T10:46:01;25.33;;;16.50;;
6667;SDS011;3370;47.712;9.082;2022-12-26T10:49:14;12.80;;;10.10;;
6667;SDS011;3370;47.712;9.082;2022-12-26T10:51:42;21.10;;;8.00;;
6667;SDS011;3370;47.712;9.082;2022-12-26T10:54:12;13.70;;;10.50;;
6667;SDS011;3370;47.712;9.082;2022-12-26T10:56:42;15.10;;;10.03;;
6667;SDS011;3370;47.712;9.082;2022-12-26T10:59:13;12.30;;;8.57;;
6667;SDS011;3370;47.712;9.082;2022-12-26T11:01:45;11.53;;;10.03;;
6667;SDS011;3370;47.712;9.082;2022-12-26T11:04:21;9.80;;;8.90;;
6667;SDS011;3370;47.712;9.082;2022-12-26T11:06:51;10.70;;;8.90;;
6667;SDS011;3370;47.712;9.082;2022-12-26T11:09:22;12.37;;;9.27;;
6667;SDS011;3370;47.712;9.082;2022-12-26T11:12:02;11.60;;;8.40;;
6667;SDS011;3370;47.712;9.082;2022-12-26T11:17:10;10.20;;;8.70;;
6667;SDS011;3370;47.712;9.082;2022-12-26T11:22:41;13.77;;;10.60;;
6667;SDS011;3370;47.712;9.082;2022-12-26T11:27:42;13.70;;;10.33;;
6667;SDS011;3370;47.712;9.082;2022-12-26T11:35:48;18.50;;;10.40;;
6667;SDS011;3370;47.712;9.082;2022-12-26T11:38:25;11.87;;;10.67;;
6667;SDS011;3370;47.712;9.082;2022-12-26T11:41:07;14.90;;;12.10;;
6667;SDS011;3370;47.712;9.082;2022-12-26T11:43:57;19.63;;;11.50;;
6667;SDS011;3370;47.712;9.082;2022-12-26T11:46:50;14.90;;;12.30;;
6667;SDS011;3370;47.712;9.082;2022-12-26T11:49:32;24.70;;;13.50;;
6667;SDS011;3370;47.712;9.082;2022-12-26T11:57:55;19.10;;;12.30;;
6667;SDS011;3370;47.712;9.082;2022-12-26T12:00:34;13.60;;;11.57;;
6667;SDS011;3370;47.712;9.082;2022-12-26T12:03:15;16.30;;;11.80;;
6667;SDS011;3370;47.712;9.082;2022-12-26T12:05:49;15.23;;;13.23;;
6667;SDS011;3370;47.712;9.082;2022-12-26T12:11:29;16.83;;;12.23;;
6667;SDS011;3370;47.712;9.082;2022-12-26T12:17:54;13.30;;;10.57;;
6667;SDS011;3370;47.712;9.082;2022-12-26T12:35:36;11.30;;;7.40;;
6667;SDS011;3370;47.712;9.082;2022-12-26T12:38:31;7.83;;;6.30;;
6667;SDS011;3370;47.712;9.082;2022-12-26T12:41:32;5.87;;;5.27;;
6667;SDS011;3370;47.712;9.082;2022-12-26T12:44:12;5.67;;;5.10;;
6667;SDS011;3370;47.712;9.082;2022-12-26T12:49:51;6.93;;;5.93;;
6667;SDS011;3370;47.712;9.082;2022-12-26T12:52:50;6.20;;;4.40;;
6667;SDS011;3370;47.712;9.082;2022-12-26T12:55:40;6.13;;;4.53;;
6667;SDS011;3370;47.712;9.082;2022-12-26T12:58:58;5.03;;;3.40;;
6667;SDS011;3370;47.712;9.082;2022-12-26T13:01:46;3.53;;;3.23;;
6667;SDS011;3370;47.712;9.082;2022-12-26T13:07:26;2.50;;;2.33;;
6667;SDS011;3370;47.712;9.082;2022-12-26T13:10:02;3.07;;;2.47;;
6667;SDS011;3370;47.712;9.082;2022-12-26T13:12:43;2.80;;;2.67;;
6667;SDS011;3370;47.712;9.082;2022-12-26T13:15:19;2.20;;;2.10;;
6667;SDS011;3370;47.712;9.082;2022-12-26T13:18:02;2.53;;;2.40;;
6667;SDS011;3370;47.712;9.082;2022-12-26T13:20:58;2.70;;;2.50;;
6667;SDS011;3370;47.712;9.082;2022-12-26T13:23:32;2.10;;;2.00;;
6667;SDS011;3370;47.712;9.082;2022-12-26T13:26:29;2.10;;;2.00;;
6667;SDS011;3370;47.712;9.082;2022-12-26T13:29:09;1.77;;;1.67;;
6667;SDS011;3370;47.712;9.082;2022-12-26T13:31:48;1.90;;;1.80;;
6667;SDS011;3370;47.712;9.082;2022-12-26T13:34:15;2.30;;;2.20;;
6667;SDS011;3370;47.712;9.082;2022-12-26T13:36:47;2.40;;;2.30;;
6667;SDS011;3370;47.712;9.082;2022-12-26T13:41:55;2.83;;;1.80;;
6667;SDS011;3370;47.712;9.082;2022-12-26T13:44:46;2.43;;;2.30;;
6667;SDS011;3370;47.712;9.082;2022-12-26T13:55:53;2.00;;;1.90;;
6667;SDS011;3370;47.712;9.082;2022-12-26T14:10:20;2.00;;;1.90;;
6667;SDS011;3370;47.712;9.082;2022-12-26T14:13:36;2.87;;;1.97;;
6667;SDS011;3370;47.712;9.082;2022-12-26T14:19:44;2.17;;;1.70;;
6667;SDS011;3370;47.712;9.082;2022-12-26T14:22:51;9.07;;;2.20;;
6667;SDS011;3370;47.712;9.082;2022-12-26T14:40:30;3.77;;;1.80;;
6667;SDS011;3370;47.712;9.082;2022-12-26T14:48:01;2.60;;;2.40;;
6667;SDS011;3370;47.712;9.082;2022-12-26T15:07:08;2.50;;;1.40;;
6667;SDS011;3370;47.712;9.082;2022-12-26T15:19:06;1.63;;;1.43;;
6667;SDS011;3370;47.712;9.082;2022-12-26T15:25:50;1.80;;;1.70;;
6667;SDS011;3370;47.712;9.082;2022-12-26T15:33:41;1.43;;;1.33;;
6667;SDS011;3370;47.712;9.082;2022-12-26T15:39:23;1.17;;;1.07;;
6667;SDS011;3370;47.712;9.082;2022-12-26T15:42:12;1.27;;;1.17;;
6667;SDS011;3370;47.712;9.082;2022-12-26T15:48:02;1.00;;;1.00;;
6667;SDS011;3370;47.712;9.082;2022-12-26T15:50:58;1.40;;;1.30;;
6667;SDS011;3370;47.712;9.082;2022-12-26T15:53:55;1.80;;;1.70;;
6667;SDS011;3370;47.712;9.082;2022-12-26T16:11:28;1.20;;;1.20;;
6667;SDS011;3370;47.712;9.082;2022-12-26T16:14:08;1.43;;;1.30;;
6667;SDS011;3370;47.712;9.082;2022-12-26T16:16:48;4.20;;;1.60;;
6667;SDS011;3370;47.712;9.082;2022-12-26T16:21:51;1.33;;;1.10;;
6667;SDS011;3370;47.712;9.082;2022-12-26T16:24:42;1.10;;;1.00;;
6667;SDS011;3370;47.712;9.082;2022-12-26T16:27:14;1.50;;;1.40;;
6667;SDS011;3370;47.712;9.082;2022-12-26T16:29:59;1.30;;;1.30;;
6667;SDS011;3370;47.712;9.082;2022-12-26T16:32:38;1.00;;;1.00;;
6667;SDS011;3370;47.712;9.082;2022-12-26T16:35:14;1.20;;;1.20;;
6667;SDS011;3370;47.712;9.082;2022-12-26T16:37:57;1.37;;;1.37;;
6667;SDS011;3370;47.712;9.082;2022-12-26T16:40:32;1.37;;;1.37;;
6667;SDS011;3370;47.712;9.082;2022-12-26T16:46:01;1.40;;;1.40;;
6667;SDS011;3370;47.712;9.082;2022-12-26T16:48:31;1.60;;;1.50;;
6667;SDS011;3370;47.712;9.082;2022-12-26T16:51:04;1.73;;;1.63;;
6667;SDS011;3370;47.712;9.082;2022-12-26T16:53:53;1.90;;;1.80;;
6667;SDS011;3370;47.712;9.082;2022-12-26T17:01:36;1.30;;;1.30;;
6667;SDS011;3370;47.712;9.082;2022-12-26T17:04:06;1.43;;;1.33;;
6667;SDS011;3370;47.712;9.082;2022-12-26T17:06:55;2.00;;;1.90;;
6667;SDS011;3370;47.712;9.082;2022-12-26T17:09:43;1.77;;;1.67;;
6667;SDS011;3370;47.712;9.082;2022-12-26T17:12:22;1.80;;;1.70;;
6667;SDS011;3370;47.712;9.082;2022-12-26T17:14:55;4.30;;;3.70;;
6667;SDS011;3370;47.712;9.082;2022-12-26T17:19:49;7.07;;;3.90;;
6667;SDS011;3370;47.712;9.082;2022-12-26T17:22:31;4.23;;;3.00;;
6667;SDS011;3370;47.712;9.082;2022-12-26T17:33:30;3.90;;;3.60;;
6667;SDS011;3370;47.712;9.082;2022-12-26T17:36:00;3.73;;;3.40;;
6667;SDS011;3370;47.712;9.082;2022-12-26T17:38:31;2.07;;;1.90;;
6667;SDS011;3370;47.712;9.082;2022-12-26T17:41:00;1.57;;;1.57;;
6667;SDS011;3370;47.712;9.082;2022-12-26T17:43:30;1.47;;;1.37;;
6667;SDS011;3370;47.712;9.082;2022-12-26T17:45:58;1.40;;;1.27;;
6667;SDS011;3370;47.712;9.082;2022-12-26T17:48:26;1.33;;;1.33;;
6667;SDS011;3370;47.712;9.082;2022-12-26T17:50:53;1.87;;;1.63;;
6667;SDS011;3370;47.712;9.082;2022-12-26T17:53:29;1.70;;;1.60;;
6667;SDS011;3370;47.712;9.082;2022-12-26T17:56:05;1.50;;;1.50;;
6667;SDS011;3370;47.712;9.082;2022-12-26T17:58:54;1.60;;;1.50;;
6667;SDS011;3370;47.712;9.082;2022-12-26T18:01:20;1.90;;;1.83;;
6667;SDS011;3370;47.712;9.082;2022-12-26T18:03:46;1.80;;;1.70;;
6667;SDS011;3370;47.712;9.082;2022-12-26T18:06:13;2.00;;;1.80;;
6667;SDS011;3370;47.712;9.082;2022-12-26T18:08:40;1.77;;;1.67;;
6667;SDS011;3370;47.712;9.082;2022-12-26T18:11:08;1.83;;;1.83;;
6667;SDS011;3370;47.712;9.082;2022-12-26T18:13:35;2.77;;;2.00;;
6667;SDS011;3370;47.712;9.082;2022-12-26T18:16:02;1.87;;;1.77;;
6667;SDS011;3370;47.712;9.082;2022-12-26T18:18:32;1.97;;;1.87;;
6667;SDS011;3370;47.712;9.082;2022-12-26T18:21:03;1.93;;;1.83;;
6667;SDS011;3370;47.712;9.082;2022-12-26T18:23:32;2.23;;;2.03;;
6667;SDS011;3370;47.712;9.082;2022-12-26T18:25:59;2.10;;;2.00;;
6667;SDS011;3370;47.712;9.082;2022-12-26T18:28:29;2.07;;;1.97;;
6667;SDS011;3370;47.712;9.082;2022-12-26T18:30:56;1.90;;;1.80;;
6667;SDS011;3370;47.712;9.082;2022-12-26T18:33:22;1.67;;;1.67;;
6667;SDS011;3370;47.712;9.082;2022-12-26T18:35:48;3.17;;;2.90;;
6667;SDS011;3370;47.712;9.082;2022-12-26T18:38:15;2.10;;;2.00;;
6667;SDS011;3370;47.712;9.082;2022-12-26T18:40:44;1.50;;;1.40;;
6667;SDS011;3370;47.712;9.082;2022-12-26T18:43:16;2.13;;;1.97;;
6667;SDS011;3370;47.712;9.082;2022-12-26T18:45:43;2.27;;;2.10;;
6667;SDS011;3370;47.712;9.082;2022-12-26T18:48:12;2.77;;;1.73;;
6667;SDS011;3370;47.712;9.082;2022-12-26T18:50:40;3.77;;;2.00;;
6667;SDS011;3370;47.712;9.082;2022-12-26T18:53:06;3.20;;;2.13;;
6667;SDS011;3370;47.712;9.082;2022-12-26T18:55:32;1.63;;;1.53;;
6667;SDS011;3370;47.712;9.082;2022-12-26T18:57:58;2.00;;;1.90;;
6667;SDS011;3370;47.712;9.082;2022-12-26T19:00:24;1.80;;;1.70;;
6667;SDS011;3370;47.712;9.082;2022-12-26T19:02:50;1.70;;;1.57;;
6667;SDS011;3370;47.712;9.082;2022-12-26T19:05:19;2.00;;;1.90;;
6667;SDS011;3370;47.712;9.082;2022-12-26T19:07:50;2.03;;;1.57;;
6667;SDS011;3370;47.712;9.082;2022-12-26T19:10:17;1.73;;;1.63;;
6667;SDS011;3370;47.712;9.082;2022-12-26T19:12:45;1.90;;;1.70;;
6667;SDS011;3370;47.712;9.082;2022-12-26T19:15:12;2.80;;;2.00;;
6667;SDS011;3370;47.712;9.082;2022-12-26T19:17:39;1.20;;;1.20;;
6667;SDS011;3370;47.712;9.082;2022-12-26T19:20:08;1.40;;;1.40;;
6667;SDS011;3370;47.712;9.082;2022-12-26T19:22:47;1.43;;;1.40;;
6667;SDS011;3370;47.712;9.082;2022-12-26T19:25:14;1.27;;;1.13;;
6667;SDS011;3370;47.712;9.082;2022-12-26T19:27:41;1.27;;;1.27;;
6667;SDS011;3370;47.712;9.082;2022-12-26T19:30:07;3.13;;;1.07;;
6667;SDS011;3370;47.712;9.082;2022-12-26T19:32:34;1.13;;;1.00;;
6667;SDS011;3370;47.712;9.082;2022-12-26T19:35:00;1.67;;;0.77;;
6667;SDS011;3370;47.712;9.082;2022-12-26T19:37:26;1.93;;;1.13;;
6667;SDS011;3370;47.712;9.082;2022-12-26T19:39:53;1.70;;;1.00;;
6667;SDS011;3370;47.712;9.082;2022-12-26T19:42:19;0.90;;;0.90;;